createdAt,value
2018-01-05T00:07:11.022Z,979.16
2018-01-05T00:17:39.327Z,980.52
2018-01-05T00:28:07.611Z,980.32
2018-01-05T00:38:35.829Z,979.47
2018-01-05T00:49:03.997Z,980.05
2018-01-05T00:59:32.154Z,979.34
2018-01-05T01:10:00.293Z,979.85
2018-01-05T01:20:28.462Z,979.99
2018-01-05T01:30:56.629Z,979.52
2018-01-05T01:41:24.882Z,979.54
2018-01-05T01:51:53.116Z,980.02
2018-01-05T02:02:21.901Z,980.66
2018-01-05T02:12:49.680Z,980.70
2018-01-05T02:23:17.920Z,980.48
2018-01-05T02:33:46.188Z,980.19
2018-01-05T02:44:14.409Z,980.33
2018-01-05T02:54:42.587Z,980.44
2018-01-05T03:05:10.739Z,980.44
2018-01-05T03:15:38.864Z,980.39
2018-01-05T03:26:06.936Z,979.09
2018-01-05T03:36:35.063Z,980.01
2018-01-05T03:47:03.363Z,980.30
2018-01-05T03:57:31.297Z,979.15
2018-01-05T04:07:59.453Z,979.17
2018-01-05T04:18:27.614Z,979.41
2018-01-05T04:28:55.750Z,979.13
2018-01-05T04:39:23.942Z,979.22
2018-01-05T04:49:52.108Z,979.09
2018-01-05T05:00:20.304Z,979.14
2018-01-05T05:10:48.485Z,979.13
2018-01-05T05:21:16.695Z,978.65
2018-01-05T05:31:44.940Z,978.58
2018-01-05T05:42:13.265Z,978.59
2018-01-05T05:52:41.638Z,978.98
2018-01-05T06:03:10.032Z,979.09
2018-01-05T06:13:38.946Z,979.58
2018-01-05T06:24:06.800Z,979.57
2018-01-05T06:34:35.149Z,979.07
2018-01-05T06:45:03.491Z,979.15
2018-01-05T06:55:31.870Z,979.34
2018-01-05T07:06:00.238Z,979.21
2018-01-05T07:16:28.621Z,979.42
2018-01-05T07:26:57.003Z,979.35
2018-01-05T07:37:25.380Z,979.24
2018-01-05T07:47:53.814Z,979.56
2018-01-05T07:58:22.219Z,979.46
2018-01-05T08:08:50.657Z,979.54
2018-01-05T08:19:19.120Z,979.42
2018-01-05T08:29:47.646Z,979.65
2018-01-05T08:40:16.156Z,979.80
2018-01-05T08:50:44.692Z,979.62
2018-01-05T09:01:13.278Z,979.93
2018-01-05T09:11:41.855Z,980.06
2018-01-05T09:22:10.423Z,979.92
2018-01-05T09:32:39.040Z,979.99
2018-01-05T09:43:07.697Z,980.67
2018-01-05T09:53:36.349Z,980.35
2018-01-05T10:04:05.062Z,980.19
2018-01-05T10:14:33.775Z,980.38
2018-01-05T10:25:02.477Z,980.15
2018-01-05T10:35:31.699Z,979.89
2018-01-05T10:45:59.957Z,980.63
2018-01-05T10:56:28.703Z,980.20
2018-01-05T11:06:57.946Z,979.91
2018-01-05T11:17:26.742Z,980.48
2018-01-05T11:27:55.486Z,979.89
2018-01-05T11:38:24.327Z,980.24
2018-01-05T11:48:53.045Z,979.85
2018-01-05T11:59:21.889Z,979.07
2018-01-05T12:09:50.851Z,980.27
2018-01-05T12:20:19.706Z,979.87
2018-01-05T12:30:47.908Z,980.06
2018-01-05T12:41:17.205Z,980.00
2018-01-05T12:51:46.026Z,980.26
2018-01-05T13:02:14.742Z,980.09
2018-01-05T13:12:43.569Z,979.88
2018-01-05T13:23:12.458Z,979.58
2018-01-05T13:33:41.348Z,980.19
2018-01-05T13:44:10.228Z,980.03
2018-01-05T13:54:39.084Z,980.68
2018-01-05T14:05:08.865Z,980.62
2018-01-05T14:15:36.602Z,980.76
2018-01-05T14:26:06.265Z,980.94
2018-01-05T14:36:33.928Z,981.15
2018-01-05T14:47:02.514Z,981.26
2018-01-05T14:57:31.158Z,981.36
2018-01-05T15:07:59.685Z,981.02
2018-01-05T15:18:28.221Z,981.30
2018-01-05T15:28:56.716Z,981.17
2018-01-05T15:39:25.184Z,981.32
2018-01-05T15:49:53.593Z,981.59
2018-01-05T16:00:22.013Z,981.49
2018-01-05T16:10:50.388Z,981.47
2018-01-05T16:21:18.662Z,981.23
2018-01-05T16:31:46.979Z,981.00
2018-01-05T16:42:15.292Z,981.47
2018-01-05T16:52:43.618Z,981.51
2018-01-05T17:03:11.847Z,981.71
2018-01-05T17:13:40.024Z,981.41
2018-01-05T17:24:08.325Z,982.13
2018-01-05T17:34:36.337Z,982.06
2018-01-05T17:45:04.600Z,981.55
2018-01-05T17:55:32.572Z,981.76
2018-01-05T18:06:00.639Z,982.00
2018-01-05T18:16:28.825Z,981.65
2018-01-05T18:26:56.961Z,981.80
2018-01-05T18:37:25.468Z,981.81
2018-01-05T18:47:53.653Z,982.32
2018-01-05T18:58:21.603Z,982.25
2018-01-05T19:08:49.848Z,982.18
2018-01-05T19:19:18.075Z,982.45
2018-01-05T19:29:46.284Z,982.61
2018-01-05T19:40:14.513Z,982.68
2018-01-05T19:50:42.725Z,982.81
2018-01-05T20:01:10.873Z,982.36
2018-01-05T20:11:39.195Z,982.62
2018-01-05T20:22:08.320Z,982.98
2018-01-05T20:32:35.543Z,983.01
2018-01-05T20:43:03.794Z,983.26
2018-01-05T20:53:32.035Z,983.49
2018-01-05T21:04:00.166Z,983.43
2018-01-05T21:14:28.470Z,982.72
2018-01-05T21:24:56.694Z,983.44
2018-01-05T21:35:24.929Z,983.86
2018-01-05T21:45:53.214Z,984.36
2018-01-05T21:56:21.470Z,984.19
2018-01-05T22:06:49.714Z,984.29
2018-01-05T22:17:17.968Z,983.89
2018-01-05T22:27:46.795Z,983.91
2018-01-05T22:48:42.749Z,984.20
2018-01-05T22:59:11.011Z,984.47
2018-01-05T23:09:39.370Z,984.39
2018-01-05T23:20:07.651Z,984.52
2018-01-05T23:30:36.000Z,984.71
2018-01-05T23:41:04.335Z,984.62
2018-01-05T23:51:32.698Z,985.60
